sensor_id;sensor_type;location;lat;lon;timestamp;temperature;humidity
3256;DHT22;1640;48.504;9.224;2022-07-11T00:02:25;14.00;62.00
3256;DHT22;1640;48.504;9.224;2022-07-11T00:04:53;14.00;61.00
3256;DHT22;1640;48.504;9.224;2022-07-11T00:07:20;13.90;60.70
3256;DHT22;1640;48.504;9.224;2022-07-11T00:09:48;13.90;60.60
3256;DHT22;1640;48.504;9.224;2022-07-11T00:12:16;13.90;59.90
3256;DHT22;1640;48.504;9.224;2022-07-11T00:14:48;13.90;59.70
3256;DHT22;1640;48.504;9.224;2022-07-11T00:17:16;13.80;60.90
3256;DHT22;1640;48.504;9.224;2022-07-11T00:19:43;13.70;59.90
3256;DHT22;1640;48.504;9.224;2022-07-11T00:22:12;13.70;59.60
3256;DHT22;1640;48.504;9.224;2022-07-11T00:24:40;13.70;60.00
3256;DHT22;1640;48.504;9.224;2022-07-11T00:27:08;13.50;60.00
3256;DHT22;1640;48.504;9.224;2022-07-11T00:29:41;13.60;58.00
3256;DHT22;1640;48.504;9.224;2022-07-11T00:32:10;13.70;57.50
3256;DHT22;1640;48.504;9.224;2022-07-11T00:34:38;13.70;59.50
3256;DHT22;1640;48.504;9.224;2022-07-11T00:37:06;13.70;59.70
3256;DHT22;1640;48.504;9.224;2022-07-11T00:39:33;13.80;58.40
3256;DHT22;1640;48.504;9.224;2022-07-11T00:42:01;13.90;59.20
3256;DHT22;1640;48.504;9.224;2022-07-11T00:44:29;14.10;59.70
3256;DHT22;1640;48.504;9.224;2022-07-11T00:46:57;14.20;61.00
3256;DHT22;1640;48.504;9.224;2022-07-11T00:49:26;14.20;62.60
3256;DHT22;1640;48.504;9.224;2022-07-11T00:51:54;14.10;63.20
3256;DHT22;1640;48.504;9.224;2022-07-11T00:54:23;14.10;63.40
3256;DHT22;1640;48.504;9.224;2022-07-11T00:56:51;14.00;63.40
3256;DHT22;1640;48.504;9.224;2022-07-11T00:59:19;13.80;62.30
3256;DHT22;1640;48.504;9.224;2022-07-11T01:01:47;13.60;61.30
3256;DHT22;1640;48.504;9.224;2022-07-11T01:04:15;13.50;60.40
3256;DHT22;1640;48.504;9.224;2022-07-11T01:06:44;13.50;58.20
3256;DHT22;1640;48.504;9.224;2022-07-11T01:09:12;13.70;59.90
3256;DHT22;1640;48.504;9.224;2022-07-11T01:11:40;13.80;61.70
3256;DHT22;1640;48.504;9.224;2022-07-11T01:14:08;13.90;59.60
3256;DHT22;1640;48.504;9.224;2022-07-11T01:16:35;14.10;61.90
3256;DHT22;1640;48.504;9.224;2022-07-11T01:19:03;14.10;63.20
3256;DHT22;1640;48.504;9.224;2022-07-11T01:21:32;14.00;62.70
3256;DHT22;1640;48.504;9.224;2022-07-11T01:24:07;13.80;61.70
3256;DHT22;1640;48.504;9.224;2022-07-11T01:26:35;13.80;61.10
3256;DHT22;1640;48.504;9.224;2022-07-11T01:29:07;13.70;59.90
3256;DHT22;1640;48.504;9.224;2022-07-11T01:31:39;13.60;59.00
3256;DHT22;1640;48.504;9.224;2022-07-11T01:34:07;13.40;58.80
3256;DHT22;1640;48.504;9.224;2022-07-11T01:36:35;13.30;57.70
3256;DHT22;1640;48.504;9.224;2022-07-11T01:39:05;13.40;57.80
3256;DHT22;1640;48.504;9.224;2022-07-11T01:41:33;13.40;57.80
3256;DHT22;1640;48.504;9.224;2022-07-11T01:44:01;13.30;57.00
3256;DHT22;1640;48.504;9.224;2022-07-11T01:46:29;13.30;56.90
3256;DHT22;1640;48.504;9.224;2022-07-11T01:48:57;13.30;56.60
3256;DHT22;1640;48.504;9.224;2022-07-11T01:51:25;13.30;56.90
3256;DHT22;1640;48.504;9.224;2022-07-11T01:53:53;13.40;57.80
3256;DHT22;1640;48.504;9.224;2022-07-11T01:56:23;13.30;56.60
3256;DHT22;1640;48.504;9.224;2022-07-11T01:58:53;13.30;57.50
3256;DHT22;1640;48.504;9.224;2022-07-11T02:01:21;13.40;57.50
3256;DHT22;1640;48.504;9.224;2022-07-11T02:03:49;13.40;57.40
3256;DHT22;1640;48.504;9.224;2022-07-11T02:06:16;13.50;54.30
3256;DHT22;1640;48.504;9.224;2022-07-11T02:08:44;13.60;56.10
3256;DHT22;1640;48.504;9.224;2022-07-11T02:11:12;13.90;58.50
3256;DHT22;1640;48.504;9.224;2022-07-11T02:13:41;14.00;60.60
3256;DHT22;1640;48.504;9.224;2022-07-11T02:16:09;14.00;59.50
3256;DHT22;1640;48.504;9.224;2022-07-11T02:18:37;14.10;60.30
3256;DHT22;1640;48.504;9.224;2022-07-11T02:21:07;14.10;61.90
3256;DHT22;1640;48.504;9.224;2022-07-11T02:23:35;13.90;61.40
3256;DHT22;1640;48.504;9.224;2022-07-11T02:26:03;13.80;60.60
3256;DHT22;1640;48.504;9.224;2022-07-11T02:28:31;13.70;58.80
3256;DHT22;1640;48.504;9.224;2022-07-11T02:31:02;13.60;58.80
3256;DHT22;1640;48.504;9.224;2022-07-11T02:33:29;13.50;56.10
3256;DHT22;1640;48.504;9.224;2022-07-11T02:35:58;13.60;56.10
3256;DHT22;1640;48.504;9.224;2022-07-11T02:38:25;13.60;56.90
3256;DHT22;1640;48.504;9.224;2022-07-11T02:40:54;13.60;56.50
3256;DHT22;1640;48.504;9.224;2022-07-11T02:43:21;13.60;57.00
3256;DHT22;1640;48.504;9.224;2022-07-11T02:45:49;13.60;55.90
3256;DHT22;1640;48.504;9.224;2022-07-11T02:48:21;13.60;58.00
3256;DHT22;1640;48.504;9.224;2022-07-11T02:50:48;13.40;57.70
3256;DHT22;1640;48.504;9.224;2022-07-11T02:53:17;13.20;56.10
3256;DHT22;1640;48.504;9.224;2022-07-11T02:55:46;13.30;54.80
3256;DHT22;1640;48.504;9.224;2022-07-11T02:58:15;13.10;54.20
3256;DHT22;1640;48.504;9.224;2022-07-11T03:00:42;13.00;52.30
3256;DHT22;1640;48.504;9.224;2022-07-11T03:03:10;13.00;51.70
3256;DHT22;1640;48.504;9.224;2022-07-11T03:05:39;13.00;51.40
3256;DHT22;1640;48.504;9.224;2022-07-11T03:08:07;13.20;49.00
3256;DHT22;1640;48.504;9.224;2022-07-11T03:10:35;13.30;51.40
3256;DHT22;1640;48.504;9.224;2022-07-11T03:13:03;13.30;55.10
3256;DHT22;1640;48.504;9.224;2022-07-11T03:15:31;13.20;53.10
3256;DHT22;1640;48.504;9.224;2022-07-11T03:17:59;13.30;52.80
3256;DHT22;1640;48.504;9.224;2022-07-11T03:20:26;13.30;53.60
3256;DHT22;1640;48.504;9.224;2022-07-11T03:22:56;13.50;52.10
3256;DHT22;1640;48.504;9.224;2022-07-11T03:25:23;13.60;55.10
3256;DHT22;1640;48.504;9.224;2022-07-11T03:27:51;13.70;55.90
3256;DHT22;1640;48.504;9.224;2022-07-11T03:30:19;13.80;56.50
3256;DHT22;1640;48.504;9.224;2022-07-11T03:32:47;13.90;57.10
3256;DHT22;1640;48.504;9.224;2022-07-11T03:35:14;13.90;60.30
3256;DHT22;1640;48.504;9.224;2022-07-11T03:38:01;13.60;58.40
3256;DHT22;1640;48.504;9.224;2022-07-11T03:40:29;13.50;56.20
3256;DHT22;1640;48.504;9.224;2022-07-11T03:42:57;13.40;56.20
3256;DHT22;1640;48.504;9.224;2022-07-11T03:45:25;13.40;56.30
3256;DHT22;1640;48.504;9.224;2022-07-11T03:47:53;13.40;56.20
3256;DHT22;1640;48.504;9.224;2022-07-11T03:50:21;13.40;54.80
3256;DHT22;1640;48.504;9.224;2022-07-11T03:52:49;13.40;55.60
3256;DHT22;1640;48.504;9.224;2022-07-11T03:55:19;13.50;56.10
3256;DHT22;1640;48.504;9.224;2022-07-11T03:57:47;13.50;55.90
3256;DHT22;1640;48.504;9.224;2022-07-11T04:00:15;13.40;55.10
3256;DHT22;1640;48.504;9.224;2022-07-11T04:02:43;13.40;54.70
3256;DHT22;1640;48.504;9.224;2022-07-11T04:05:11;13.40;54.70
3256;DHT22;1640;48.504;9.224;2022-07-11T04:07:39;13.40;54.30
3256;DHT22;1640;48.504;9.224;2022-07-11T04:10:08;13.40;52.40
3256;DHT22;1640;48.504;9.224;2022-07-11T04:12:38;13.30;52.70
3256;DHT22;1640;48.504;9.224;2022-07-11T04:15:06;13.30;51.60
3256;DHT22;1640;48.504;9.224;2022-07-11T04:17:34;13.20;52.10
3256;DHT22;1640;48.504;9.224;2022-07-11T04:20:03;13.20;51.80
3256;DHT22;1640;48.504;9.224;2022-07-11T04:22:31;13.30;51.80
3256;DHT22;1640;48.504;9.224;2022-07-11T04:24:59;13.50;51.40
3256;DHT22;1640;48.504;9.224;2022-07-11T04:27:27;13.50;54.60
3256;DHT22;1640;48.504;9.224;2022-07-11T04:29:57;13.70;54.70
3256;DHT22;1640;48.504;9.224;2022-07-11T04:32:24;13.80;56.20
3256;DHT22;1640;48.504;9.224;2022-07-11T04:34:52;13.90;57.10
3256;DHT22;1640;48.504;9.224;2022-07-11T04:37:20;13.90;57.40
3256;DHT22;1640;48.504;9.224;2022-07-11T04:39:48;14.00;56.60
3256;DHT22;1640;48.504;9.224;2022-07-11T04:42:16;14.10;58.60
3256;DHT22;1640;48.504;9.224;2022-07-11T04:44:44;14.20;59.60
3256;DHT22;1640;48.504;9.224;2022-07-11T04:47:13;14.30;60.10
3256;DHT22;1640;48.504;9.224;2022-07-11T04:49:41;14.40;61.60
3256;DHT22;1640;48.504;9.224;2022-07-11T04:52:13;14.50;60.40
3256;DHT22;1640;48.504;9.224;2022-07-11T04:54:41;14.60;62.00
3256;DHT22;1640;48.504;9.224;2022-07-11T04:57:09;14.80;62.70
3256;DHT22;1640;48.504;9.224;2022-07-11T04:59:37;14.80;63.20
3256;DHT22;1640;48.504;9.224;2022-07-11T05:02:05;14.80;64.50
3256;DHT22;1640;48.504;9.224;2022-07-11T05:04:37;14.40;62.90
3256;DHT22;1640;48.504;9.224;2022-07-11T05:07:05;14.20;61.40
3256;DHT22;1640;48.504;9.224;2022-07-11T05:09:33;14.20;60.90
3256;DHT22;1640;48.504;9.224;2022-07-11T05:12:00;14.20;59.20
3256;DHT22;1640;48.504;9.224;2022-07-11T05:14:28;14.40;60.00
3256;DHT22;1640;48.504;9.224;2022-07-11T05:16:56;14.60;61.00
3256;DHT22;1640;48.504;9.224;2022-07-11T05:19:24;14.80;62.20
3256;DHT22;1640;48.504;9.224;2022-07-11T05:21:53;15.00;63.60
3256;DHT22;1640;48.504;9.224;2022-07-11T05:24:21;15.20;65.30
3256;DHT22;1640;48.504;9.224;2022-07-11T05:26:49;15.40;65.70
3256;DHT22;1640;48.504;9.224;2022-07-11T05:29:17;15.50;65.70
3256;DHT22;1640;48.504;9.224;2022-07-11T05:31:45;15.70;67.80
3256;DHT22;1640;48.504;9.224;2022-07-11T05:34:16;15.70;68.20
3256;DHT22;1640;48.504;9.224;2022-07-11T05:36:44;15.60;68.00
3256;DHT22;1640;48.504;9.224;2022-07-11T05:39:15;15.80;67.20
3256;DHT22;1640;48.504;9.224;2022-07-11T05:41:42;15.90;68.60
3256;DHT22;1640;48.504;9.224;2022-07-11T05:44:10;15.90;68.90
3256;DHT22;1640;48.504;9.224;2022-07-11T05:46:38;16.10;68.80
3256;DHT22;1640;48.504;9.224;2022-07-11T05:49:06;16.10;69.30
3256;DHT22;1640;48.504;9.224;2022-07-11T05:51:34;16.00;69.80
3256;DHT22;1640;48.504;9.224;2022-07-11T05:54:02;16.00;70.50
3256;DHT22;1640;48.504;9.224;2022-07-11T05:56:31;16.10;70.00
3256;DHT22;1640;48.504;9.224;2022-07-11T05:58:59;16.10;69.50
3256;DHT22;1640;48.504;9.224;2022-07-11T06:01:27;16.10;69.60
3256;DHT22;1640;48.504;9.224;2022-07-11T06:04:00;16.20;69.90
3256;DHT22;1640;48.504;9.224;2022-07-11T06:06:27;16.30;69.30
3256;DHT22;1640;48.504;9.224;2022-07-11T06:08:56;16.50;70.30
3256;DHT22;1640;48.504;9.224;2022-07-11T06:11:23;16.50;70.50
3256;DHT22;1640;48.504;9.224;2022-07-11T06:13:52;16.50;70.50
3256;DHT22;1640;48.504;9.224;2022-07-11T06:16:20;16.50;70.20
3256;DHT22;1640;48.504;9.224;2022-07-11T06:18:48;16.70;70.00
3256;DHT22;1640;48.504;9.224;2022-07-11T06:21:17;16.70;70.30
3256;DHT22;1640;48.504;9.224;2022-07-11T06:23:45;16.80;70.50
3256;DHT22;1640;48.504;9.224;2022-07-11T06:26:13;17.10;70.90
3256;DHT22;1640;48.504;9.224;2022-07-11T06:28:43;17.30;70.80
3256;DHT22;1640;48.504;9.224;2022-07-11T06:31:13;17.50;71.10
3256;DHT22;1640;48.504;9.224;2022-07-11T06:33:42;17.70;70.90
3256;DHT22;1640;48.504;9.224;2022-07-11T06:36:10;17.90;70.90
3256;DHT22;1640;48.504;9.224;2022-07-11T06:38:38;18.20;71.20
3256;DHT22;1640;48.504;9.224;2022-07-11T06:41:07;18.20;71.10
3256;DHT22;1640;48.504;9.224;2022-07-11T06:43:35;18.20;70.90
3256;DHT22;1640;48.504;9.224;2022-07-11T06:46:03;18.20;71.10
3256;DHT22;1640;48.504;9.224;2022-07-11T06:48:32;18.00;70.80
3256;DHT22;1640;48.504;9.224;2022-07-11T06:51:00;17.80;70.90
3256;DHT22;1640;48.504;9.224;2022-07-11T06:53:28;17.80;71.30
3256;DHT22;1640;48.504;9.224;2022-07-11T06:55:57;17.60;71.10
3256;DHT22;1640;48.504;9.224;2022-07-11T06:58:25;17.50;70.90
3256;DHT22;1640;48.504;9.224;2022-07-11T07:00:59;17.30;70.80
3256;DHT22;1640;48.504;9.224;2022-07-11T07:03:27;17.10;70.80
3256;DHT22;1640;48.504;9.224;2022-07-11T07:05:58;17.10;70.20
3256;DHT22;1640;48.504;9.224;2022-07-11T07:08:28;17.20;69.50
3256;DHT22;1640;48.504;9.224;2022-07-11T07:10:58;17.30;69.50
3256;DHT22;1640;48.504;9.224;2022-07-11T07:13:28;17.30;70.50
3256;DHT22;1640;48.504;9.224;2022-07-11T07:15:56;17.30;69.30
3256;DHT22;1640;48.504;9.224;2022-07-11T07:18:25;17.40;69.60
3256;DHT22;1640;48.504;9.224;2022-07-11T07:20:53;17.50;69.90
3256;DHT22;1640;48.504;9.224;2022-07-11T07:23:23;17.60;69.60
3256;DHT22;1640;48.504;9.224;2022-07-11T07:25:50;17.60;69.60
3256;DHT22;1640;48.504;9.224;2022-07-11T07:28:19;17.70;69.80
3256;DHT22;1640;48.504;9.224;2022-07-11T07:30:47;18.00;70.00
3256;DHT22;1640;48.504;9.224;2022-07-11T07:33:15;18.20;70.30
3256;DHT22;1640;48.504;9.224;2022-07-11T07:35:42;18.40;71.10
3256;DHT22;1640;48.504;9.224;2022-07-11T07:38:10;18.40;70.60
3256;DHT22;1640;48.504;9.224;2022-07-11T07:40:42;18.40;70.60
3256;DHT22;1640;48.504;9.224;2022-07-11T07:43:10;18.60;70.90
3256;DHT22;1640;48.504;9.224;2022-07-11T07:45:38;18.80;70.90
3256;DHT22;1640;48.504;9.224;2022-07-11T07:48:06;19.00;70.30
3256;DHT22;1640;48.504;9.224;2022-07-11T07:50:33;19.30;70.50
3256;DHT22;1640;48.504;9.224;2022-07-11T07:53:01;19.50;70.50
3256;DHT22;1640;48.504;9.224;2022-07-11T07:55:29;19.40;70.50
3256;DHT22;1640;48.504;9.224;2022-07-11T07:57:59;19.20;70.50
3256;DHT22;1640;48.504;9.224;2022-07-11T08:00:26;19.20;70.50
3256;DHT22;1640;48.504;9.224;2022-07-11T08:03:12;19.20;70.50
3256;DHT22;1640;48.504;9.224;2022-07-11T08:05:40;19.10;70.30
3256;DHT22;1640;48.504;9.224;2022-07-11T08:08:07;19.00;70.80
3256;DHT22;1640;48.504;9.224;2022-07-11T08:10:36;19.00;70.80
3256;DHT22;1640;48.504;9.224;2022-07-11T08:13:05;19.00;71.10
3256;DHT22;1640;48.504;9.224;2022-07-11T08:15:33;19.00;70.30
3256;DHT22;1640;48.504;9.224;2022-07-11T08:18:01;19.10;70.60
3256;DHT22;1640;48.504;9.224;2022-07-11T08:20:28;19.00;70.30
3256;DHT22;1640;48.504;9.224;2022-07-11T08:22:59;19.00;70.50
3256;DHT22;1640;48.504;9.224;2022-07-11T08:25:28;19.00;70.80
3256;DHT22;1640;48.504;9.224;2022-07-11T08:27:58;19.20;70.50
3256;DHT22;1640;48.504;9.224;2022-07-11T08:30:27;19.30;70.80
3256;DHT22;1640;48.504;9.224;2022-07-11T08:32:55;19.50;70.30
3256;DHT22;1640;48.504;9.224;2022-07-11T08:35:26;19.60;70.20
3256;DHT22;1640;48.504;9.224;2022-07-11T08:37:53;19.50;70.60
3256;DHT22;1640;48.504;9.224;2022-07-11T08:40:21;19.50;70.50
3256;DHT22;1640;48.504;9.224;2022-07-11T08:42:49;19.50;70.60
3256;DHT22;1640;48.504;9.224;2022-07-11T08:45:17;19.60;70.50
3256;DHT22;1640;48.504;9.224;2022-07-11T08:47:46;19.60;70.50
3256;DHT22;1640;48.504;9.224;2022-07-11T08:50:15;19.40;70.60
3256;DHT22;1640;48.504;9.224;2022-07-11T08:52:43;19.40;70.30
3256;DHT22;1640;48.504;9.224;2022-07-11T08:55:10;19.50;70.50
3256;DHT22;1640;48.504;9.224;2022-07-11T08:57:38;19.60;70.30
3256;DHT22;1640;48.504;9.224;2022-07-11T09:00:09;19.80;70.30
3256;DHT22;1640;48.504;9.224;2022-07-11T09:02:37;19.80;68.80
3256;DHT22;1640;48.504;9.224;2022-07-11T09:05:09;19.90;68.90
3256;DHT22;1640;48.504;9.224;2022-07-11T09:07:42;20.00;69.00
3256;DHT22;1640;48.504;9.224;2022-07-11T09:10:10;20.00;69.20
3256;DHT22;1640;48.504;9.224;2022-07-11T09:12:58;20.10;66.90
3256;DHT22;1640;48.504;9.224;2022-07-11T09:15:34;20.20;66.50
3256;DHT22;1640;48.504;9.224;2022-07-11T09:18:04;20.40;64.30
3256;DHT22;1640;48.504;9.224;2022-07-11T09:20:56;20.50;66.60
3256;DHT22;1640;48.504;9.224;2022-07-11T09:23:43;20.70;64.90
3256;DHT22;1640;48.504;9.224;2022-07-11T09:26:32;20.50;65.90
3256;DHT22;1640;48.504;9.224;2022-07-11T09:29:05;20.40;64.30
3256;DHT22;1640;48.504;9.224;2022-07-11T09:31:34;20.60;64.90
3256;DHT22;1640;48.504;9.224;2022-07-11T09:34:04;20.90;63.20
3256;DHT22;1640;48.504;9.224;2022-07-11T09:36:39;21.00;63.00
3256;DHT22;1640;48.504;9.224;2022-07-11T09:39:09;20.90;60.00
3256;DHT22;1640;48.504;9.224;2022-07-11T09:41:37;20.90;61.10
3256;DHT22;1640;48.504;9.224;2022-07-11T09:44:10;21.00;62.00
3256;DHT22;1640;48.504;9.224;2022-07-11T09:46:39;20.90;64.00
3256;DHT22;1640;48.504;9.224;2022-07-11T09:49:07;21.10;65.30
3256;DHT22;1640;48.504;9.224;2022-07-11T09:51:37;21.40;65.20
3256;DHT22;1640;48.504;9.224;2022-07-11T09:54:08;21.60;62.70
3256;DHT22;1640;48.504;9.224;2022-07-11T09:56:39;21.70;62.60
3256;DHT22;1640;48.504;9.224;2022-07-11T09:59:09;21.80;61.70
3256;DHT22;1640;48.504;9.224;2022-07-11T10:01:38;22.10;61.30
3256;DHT22;1640;48.504;9.224;2022-07-11T10:04:07;22.20;61.10
3256;DHT22;1640;48.504;9.224;2022-07-11T10:06:38;22.30;61.90
3256;DHT22;1640;48.504;9.224;2022-07-11T10:09:06;22.50;61.70
3256;DHT22;1640;48.504;9.224;2022-07-11T10:11:36;22.80;59.00
3256;DHT22;1640;48.504;9.224;2022-07-11T10:14:04;22.90;61.60
3256;DHT22;1640;48.504;9.224;2022-07-11T10:16:40;22.80;59.60
3256;DHT22;1640;48.504;9.224;2022-07-11T10:19:30;22.70;59.00
3256;DHT22;1640;48.504;9.224;2022-07-11T10:22:06;22.50;58.60
3256;DHT22;1640;48.504;9.224;2022-07-11T10:24:43;22.50;59.50
3256;DHT22;1640;48.504;9.224;2022-07-11T10:27:18;22.50;59.30
3256;DHT22;1640;48.504;9.224;2022-07-11T10:29:50;22.40;59.90
3256;DHT22;1640;48.504;9.224;2022-07-11T10:32:20;22.50;58.40
3256;DHT22;1640;48.504;9.224;2022-07-11T10:35:06;22.60;58.50
3256;DHT22;1640;48.504;9.224;2022-07-11T10:37:50;22.50;58.40
3256;DHT22;1640;48.504;9.224;2022-07-11T10:40:43;22.70;59.30
3256;DHT22;1640;48.504;9.224;2022-07-11T10:43:12;23.00;58.00
3256;DHT22;1640;48.504;9.224;2022-07-11T10:45:55;23.30;55.90
3256;DHT22;1640;48.504;9.224;2022-07-11T10:48:24;23.30;55.90
3256;DHT22;1640;48.504;9.224;2022-07-11T10:51:05;23.40;54.40
3256;DHT22;1640;48.504;9.224;2022-07-11T10:53:40;23.30;54.80
3256;DHT22;1640;48.504;9.224;2022-07-11T10:56:31;23.30;55.80
3256;DHT22;1640;48.504;9.224;2022-07-11T10:59:10;23.60;56.70
3256;DHT22;1640;48.504;9.224;2022-07-11T11:02:04;23.80;55.10
3256;DHT22;1640;48.504;9.224;2022-07-11T11:04:44;24.00;54.20
3256;DHT22;1640;48.504;9.224;2022-07-11T11:07:34;23.80;54.70
3256;DHT22;1640;48.504;9.224;2022-07-11T11:13:17;24.30;54.00
3256;DHT22;1640;48.504;9.224;2022-07-11T11:15:48;24.50;51.80
3256;DHT22;1640;48.504;9.224;2022-07-11T11:18:33;24.30;53.10
3256;DHT22;1640;48.504;9.224;2022-07-11T11:21:19;24.40;55.00
3256;DHT22;1640;48.504;9.224;2022-07-11T11:24:04;24.90;54.60
3256;DHT22;1640;48.504;9.224;2022-07-11T11:26:57;25.40;50.90
3256;DHT22;1640;48.504;9.224;2022-07-11T11:29:28;25.90;47.90
3256;DHT22;1640;48.504;9.224;2022-07-11T11:31:58;25.90;48.00
3256;DHT22;1640;48.504;9.224;2022-07-11T11:34:26;25.70;48.00
3256;DHT22;1640;48.504;9.224;2022-07-11T11:36:57;25.60;48.60
3256;DHT22;1640;48.504;9.224;2022-07-11T11:39:28;25.50;48.50
3256;DHT22;1640;48.504;9.224;2022-07-11T11:42:05;25.60;49.50
3256;DHT22;1640;48.504;9.224;2022-07-11T11:44:34;25.80;48.70
3256;DHT22;1640;48.504;9.224;2022-07-11T11:47:03;25.80;47.60
3256;DHT22;1640;48.504;9.224;2022-07-11T11:49:41;25.80;47.50
3256;DHT22;1640;48.504;9.224;2022-07-11T11:52:09;26.10;49.10
3256;DHT22;1640;48.504;9.224;2022-07-11T11:54:38;26.40;47.80
3256;DHT22;1640;48.504;9.224;2022-07-11T11:57:09;26.40;46.00
3256;DHT22;1640;48.504;9.224;2022-07-11T11:59:39;26.50;46.00
3256;DHT22;1640;48.504;9.224;2022-07-11T12:02:08;26.30;47.40
3256;DHT22;1640;48.504;9.224;2022-07-11T12:04:36;26.00;46.40
3256;DHT22;1640;48.504;9.224;2022-07-11T12:07:05;25.60;48.20
3256;DHT22;1640;48.504;9.224;2022-07-11T12:09:33;24.80;50.50
3256;DHT22;1640;48.504;9.224;2022-07-11T12:12:24;24.60;51.00
3256;DHT22;1640;48.504;9.224;2022-07-11T12:15:29;24.30;52.30
3256;DHT22;1640;48.504;9.224;2022-07-11T12:18:02;24.40;52.30
3256;DHT22;1640;48.504;9.224;2022-07-11T12:20:39;24.30;52.80
3256;DHT22;1640;48.504;9.224;2022-07-11T12:23:09;24.30;52.70
3256;DHT22;1640;48.504;9.224;2022-07-11T12:25:37;24.50;52.30
3256;DHT22;1640;48.504;9.224;2022-07-11T12:28:07;24.80;50.90
3256;DHT22;1640;48.504;9.224;2022-07-11T12:30:36;25.10;51.20
3256;DHT22;1640;48.504;9.224;2022-07-11T12:33:11;25.60;50.10
3256;DHT22;1640;48.504;9.224;2022-07-11T12:35:55;26.00;48.70
3256;DHT22;1640;48.504;9.224;2022-07-11T12:38:24;26.20;49.10
3256;DHT22;1640;48.504;9.224;2022-07-11T12:41:00;26.50;48.50
3256;DHT22;1640;48.504;9.224;2022-07-11T12:43:43;26.50;47.10
3256;DHT22;1640;48.504;9.224;2022-07-11T12:46:29;26.10;46.00
3256;DHT22;1640;48.504;9.224;2022-07-11T12:48:57;26.00;47.80
3256;DHT22;1640;48.504;9.224;2022-07-11T12:51:30;26.30;47.50
3256;DHT22;1640;48.504;9.224;2022-07-11T12:54:03;26.50;45.70
3256;DHT22;1640;48.504;9.224;2022-07-11T12:56:32;25.80;48.00
3256;DHT22;1640;48.504;9.224;2022-07-11T12:59:02;25.50;49.10
3256;DHT22;1640;48.504;9.224;2022-07-11T13:01:31;25.60;50.40
3256;DHT22;1640;48.504;9.224;2022-07-11T13:03:59;25.60;49.70
3256;DHT22;1640;48.504;9.224;2022-07-11T13:06:27;25.50;51.80
3256;DHT22;1640;48.504;9.224;2022-07-11T13:09:09;25.80;51.20
3256;DHT22;1640;48.504;9.224;2022-07-11T13:11:40;26.20;49.70
3256;DHT22;1640;48.504;9.224;2022-07-11T13:14:10;26.40;47.00
3256;DHT22;1640;48.504;9.224;2022-07-11T13:16:52;26.00;47.90
3256;DHT22;1640;48.504;9.224;2022-07-11T13:19:20;25.80;49.00
3256;DHT22;1640;48.504;9.224;2022-07-11T13:21:48;26.20;48.70
3256;DHT22;1640;48.504;9.224;2022-07-11T13:24:16;26.60;49.00
3256;DHT22;1640;48.504;9.224;2022-07-11T13:26:44;26.90;45.20
3256;DHT22;1640;48.504;9.224;2022-07-11T13:29:13;26.90;45.90
3256;DHT22;1640;48.504;9.224;2022-07-11T13:31:41;26.80;46.60
3256;DHT22;1640;48.504;9.224;2022-07-11T13:34:10;26.50;46.70
3256;DHT22;1640;48.504;9.224;2022-07-11T13:36:37;26.30;46.80
3256;DHT22;1640;48.504;9.224;2022-07-11T13:39:08;26.10;48.20
3256;DHT22;1640;48.504;9.224;2022-07-11T13:41:36;26.10;49.10
3256;DHT22;1640;48.504;9.224;2022-07-11T13:44:04;26.10;47.00
3256;DHT22;1640;48.504;9.224;2022-07-11T13:46:33;25.60;50.10
3256;DHT22;1640;48.504;9.224;2022-07-11T13:49:01;25.60;50.20
3256;DHT22;1640;48.504;9.224;2022-07-11T13:51:29;25.60;50.20
3256;DHT22;1640;48.504;9.224;2022-07-11T13:53:57;25.60;51.40
3256;DHT22;1640;48.504;9.224;2022-07-11T13:56:25;26.20;52.80
3256;DHT22;1640;48.504;9.224;2022-07-11T13:58:53;27.00;50.40
3256;DHT22;1640;48.504;9.224;2022-07-11T14:01:21;27.60;45.20
3256;DHT22;1640;48.504;9.224;2022-07-11T14:03:52;27.90;44.50
3256;DHT22;1640;48.504;9.224;2022-07-11T14:06:20;27.80;44.70
3256;DHT22;1640;48.504;9.224;2022-07-11T14:08:51;27.80;44.80
3256;DHT22;1640;48.504;9.224;2022-07-11T14:11:19;27.50;44.50
3256;DHT22;1640;48.504;9.224;2022-07-11T14:13:47;27.30;44.20
3256;DHT22;1640;48.504;9.224;2022-07-11T14:16:15;26.60;46.00
3256;DHT22;1640;48.504;9.224;2022-07-11T14:18:44;26.50;47.40
3256;DHT22;1640;48.504;9.224;2022-07-11T14:21:13;26.40;48.90
3256;DHT22;1640;48.504;9.224;2022-07-11T14:23:41;26.40;47.20
3256;DHT22;1640;48.504;9.224;2022-07-11T14:26:12;26.30;48.30
3256;DHT22;1640;48.504;9.224;2022-07-11T14:28:40;26.00;49.00
3256;DHT22;1640;48.504;9.224;2022-07-11T14:31:07;25.80;50.60
3256;DHT22;1640;48.504;9.224;2022-07-11T14:33:35;26.00;49.50
3256;DHT22;1640;48.504;9.224;2022-07-11T14:36:03;26.30;49.50
3256;DHT22;1640;48.504;9.224;2022-07-11T14:38:33;26.50;49.50
3256;DHT22;1640;48.504;9.224;2022-07-11T14:41:01;26.70;48.70
3256;DHT22;1640;48.504;9.224;2022-07-11T14:43:29;26.60;48.30
3256;DHT22;1640;48.504;9.224;2022-07-11T14:45:58;26.80;51.30
3256;DHT22;1640;48.504;9.224;2022-07-11T14:48:26;26.90;48.00
3256;DHT22;1640;48.504;9.224;2022-07-11T14:50:55;26.80;48.50
3256;DHT22;1640;48.504;9.224;2022-07-11T14:53:22;26.80;47.60
3256;DHT22;1640;48.504;9.224;2022-07-11T14:55:53;27.00;47.10
3256;DHT22;1640;48.504;9.224;2022-07-11T14:58:21;27.10;47.60
3256;DHT22;1640;48.504;9.224;2022-07-11T15:00:49;27.40;48.50
3256;DHT22;1640;48.504;9.224;2022-07-11T15:03:19;27.90;45.70
3256;DHT22;1640;48.504;9.224;2022-07-11T15:06:10;28.40;44.40
3256;DHT22;1640;48.504;9.224;2022-07-11T15:08:38;28.00;44.20
3256;DHT22;1640;48.504;9.224;2022-07-11T15:11:25;27.90;46.30
3256;DHT22;1640;48.504;9.224;2022-07-11T15:14:11;28.10;47.10
3256;DHT22;1640;48.504;9.224;2022-07-11T15:16:39;28.00;44.50
3256;DHT22;1640;48.504;9.224;2022-07-11T15:19:07;27.80;45.30
3256;DHT22;1640;48.504;9.224;2022-07-11T15:21:35;27.30;46.60
3256;DHT22;1640;48.504;9.224;2022-07-11T15:24:03;27.20;47.40
3256;DHT22;1640;48.504;9.224;2022-07-11T15:26:33;26.80;48.20
3256;DHT22;1640;48.504;9.224;2022-07-11T15:29:01;26.60;49.00
3256;DHT22;1640;48.504;9.224;2022-07-11T15:31:28;26.60;49.90
3256;DHT22;1640;48.504;9.224;2022-07-11T15:33:56;26.70;49.80
3256;DHT22;1640;48.504;9.224;2022-07-11T15:36:24;26.80;49.50
3256;DHT22;1640;48.504;9.224;2022-07-11T15:38:58;26.60;49.10
3256;DHT22;1640;48.504;9.224;2022-07-11T15:41:26;26.40;49.10
3256;DHT22;1640;48.504;9.224;2022-07-11T15:43:55;26.50;48.20
3256;DHT22;1640;48.504;9.224;2022-07-11T15:46:23;26.20;48.90
3256;DHT22;1640;48.504;9.224;2022-07-11T15:48:51;26.00;51.30
3256;DHT22;1640;48.504;9.224;2022-07-11T15:51:20;26.00;51.30
3256;DHT22;1640;48.504;9.224;2022-07-11T15:53:48;26.00;51.00
3256;DHT22;1640;48.504;9.224;2022-07-11T15:56:15;25.90;51.20
3256;DHT22;1640;48.504;9.224;2022-07-11T15:58:43;25.90;51.30
3256;DHT22;1640;48.504;9.224;2022-07-11T16:01:13;25.80;51.70
3256;DHT22;1640;48.504;9.224;2022-07-11T16:03:41;25.90;53.20
3256;DHT22;1640;48.504;9.224;2022-07-11T16:06:11;26.00;51.70
3256;DHT22;1640;48.504;9.224;2022-07-11T16:08:39;26.00;50.10
3256;DHT22;1640;48.504;9.224;2022-07-11T16:11:10;25.80;51.80
3256;DHT22;1640;48.504;9.224;2022-07-11T16:13:41;26.00;51.00
3256;DHT22;1640;48.504;9.224;2022-07-11T16:16:09;26.00;50.90
3256;DHT22;1640;48.504;9.224;2022-07-11T16:18:39;26.80;50.10
3256;DHT22;1640;48.504;9.224;2022-07-11T16:21:07;27.70;46.40
3256;DHT22;1640;48.504;9.224;2022-07-11T16:23:35;27.70;46.30
3256;DHT22;1640;48.504;9.224;2022-07-11T16:26:03;27.40;47.10